sensor_id;sensor_type;location;lat;lon;timestamp;P1;durP1;ratioP1;P2;durP2;ratioP2
53714;SDS011;39608;55.630;37.864;2023-12-04T00:03:57;5.68;;;3.78;;
53714;SDS011;39608;55.630;37.864;2023-12-04T00:09:01;6.75;;;3.88;;
53714;SDS011;39608;55.630;37.864;2023-12-04T00:14:04;6.05;;;3.33;;
53714;SDS011;39608;55.630;37.864;2023-12-04T00:19:08;6.68;;;3.90;;
53714;SDS011;39608;55.630;37.864;2023-12-04T00:24:12;2.20;;;1.98;;
53714;SDS011;39608;55.630;37.864;2023-12-04T00:29:15;4.15;;;1.83;;
53714;SDS011;39608;55.630;37.864;2023-12-04T00:34:17;5.55;;;3.33;;
53714;SDS011;39608;55.630;37.864;2023-12-04T00:39:22;6.90;;;4.07;;
53714;SDS011;39608;55.630;37.864;2023-12-04T00:44:29;5.85;;;3.10;;
53714;SDS011;39608;55.630;37.864;2023-12-04T00:49:34;6.28;;;3.88;;
53714;SDS011;39608;55.630;37.864;2023-12-04T00:54:45;5.45;;;3.22;;
53714;SDS011;39608;55.630;37.864;2023-12-04T00:59:50;3.58;;;2.80;;
53714;SDS011;39608;55.630;37.864;2023-12-04T01:04:54;5.35;;;3.25;;
53714;SDS011;39608;55.630;37.864;2023-12-04T01:10:00;4.10;;;3.08;;
53714;SDS011;39608;55.630;37.864;2023-12-04T01:15:16;6.85;;;2.67;;
53714;SDS011;39608;55.630;37.864;2023-12-04T01:20:35;5.03;;;3.50;;
53714;SDS011;39608;55.630;37.864;2023-12-04T01:25:48;5.18;;;2.88;;
53714;SDS011;39608;55.630;37.864;2023-12-04T01:31:26;1.60;;;1.33;;
53714;SDS011;39608;55.630;37.864;2023-12-04T01:37:19;11.18;;;3.63;;
53714;SDS011;39608;55.630;37.864;2023-12-04T01:42:42;8.55;;;3.85;;
53714;SDS011;39608;55.630;37.864;2023-12-04T01:48:05;4.85;;;2.53;;
53714;SDS011;39608;55.630;37.864;2023-12-04T01:53:31;6.47;;;2.92;;
53714;SDS011;39608;55.630;37.864;2023-12-04T01:58:50;5.25;;;3.10;;
53714;SDS011;39608;55.630;37.864;2023-12-04T02:04:57;5.30;;;3.47;;
53714;SDS011;39608;55.630;37.864;2023-12-04T02:10:16;4.97;;;3.20;;
53714;SDS011;39608;55.630;37.864;2023-12-04T02:22:03;6.80;;;3.65;;
53714;SDS011;39608;55.630;37.864;2023-12-04T02:27:59;4.97;;;2.92;;
53714;SDS011;39608;55.630;37.864;2023-12-04T02:33:31;8.20;;;3.83;;
53714;SDS011;39608;55.630;37.864;2023-12-04T02:44:40;5.93;;;3.60;;
53714;SDS011;39608;55.630;37.864;2023-12-04T02:57:01;8.70;;;4.72;;
53714;SDS011;39608;55.630;37.864;2023-12-04T03:27:18;4.50;;;1.67;;
53714;SDS011;39608;55.630;37.864;2023-12-04T04:38:06;6.70;;;3.25;;
53714;SDS011;39608;55.630;37.864;2023-12-04T05:45:10;3.35;;;2.45;;
53714;SDS011;39608;55.630;37.864;2023-12-04T05:50:14;9.40;;;4.95;;
53714;SDS011;39608;55.630;37.864;2023-12-04T05:55:17;5.72;;;3.83;;
53714;SDS011;39608;55.630;37.864;2023-12-04T06:00:20;8.10;;;4.53;;
53714;SDS011;39608;55.630;37.864;2023-12-04T06:05:23;9.82;;;4.00;;
53714;SDS011;39608;55.630;37.864;2023-12-04T06:10:25;9.32;;;3.83;;
53714;SDS011;39608;55.630;37.864;2023-12-04T06:15:29;7.75;;;4.15;;
53714;SDS011;39608;55.630;37.864;2023-12-04T06:20:49;8.93;;;4.97;;
53714;SDS011;39608;55.630;37.864;2023-12-04T06:31:44;8.82;;;4.82;;
53714;SDS011;39608;55.630;37.864;2023-12-04T06:43:14;6.97;;;3.85;;
53714;SDS011;39608;55.630;37.864;2023-12-04T06:49:25;11.88;;;5.20;;
53714;SDS011;39608;55.630;37.864;2023-12-04T07:39:02;11.52;;;5.65;;
53714;SDS011;39608;55.630;37.864;2023-12-04T07:44:08;6.20;;;3.50;;
53714;SDS011;39608;55.630;37.864;2023-12-04T07:49:12;4.40;;;2.67;;
53714;SDS011;39608;55.630;37.864;2023-12-04T07:54:17;7.30;;;4.25;;
53714;SDS011;39608;55.630;37.864;2023-12-04T07:59:21;8.52;;;4.95;;
53714;SDS011;39608;55.630;37.864;2023-12-04T08:04:23;4.95;;;3.85;;
53714;SDS011;39608;55.630;37.864;2023-12-04T08:09:25;9.93;;;5.18;;
53714;SDS011;39608;55.630;37.864;2023-12-04T08:14:31;4.45;;;3.42;;
53714;SDS011;39608;55.630;37.864;2023-12-04T08:19:34;11.63;;;5.15;;
53714;SDS011;39608;55.630;37.864;2023-12-04T08:24:38;6.72;;;4.03;;
53714;SDS011;39608;55.630;37.864;2023-12-04T08:29:45;13.95;;;5.82;;
53714;SDS011;39608;55.630;37.864;2023-12-04T08:34:47;12.38;;;6.25;;
53714;SDS011;39608;55.630;37.864;2023-12-04T08:39:50;7.53;;;4.35;;
53714;SDS011;39608;55.630;37.864;2023-12-04T08:44:53;3.83;;;2.25;;
53714;SDS011;39608;55.630;37.864;2023-12-04T08:49:55;8.45;;;4.75;;
53714;SDS011;39608;55.630;37.864;2023-12-04T08:54:57;10.18;;;5.28;;
53714;SDS011;39608;55.630;37.864;2023-12-04T09:00:01;18.60;;;5.38;;
53714;SDS011;39608;55.630;37.864;2023-12-04T09:05:05;5.90;;;3.00;;
53714;SDS011;39608;55.630;37.864;2023-12-04T09:10:09;13.38;;;6.80;;
53714;SDS011;39608;55.630;37.864;2023-12-04T09:15:12;5.03;;;3.33;;
53714;SDS011;39608;55.630;37.864;2023-12-04T09:20:14;4.68;;;2.58;;
53714;SDS011;39608;55.630;37.864;2023-12-04T09:25:18;13.65;;;5.47;;
53714;SDS011;39608;55.630;37.864;2023-12-04T09:30:21;11.13;;;6.20;;
53714;SDS011;39608;55.630;37.864;2023-12-04T09:35:24;8.73;;;3.95;;
53714;SDS011;39608;55.630;37.864;2023-12-04T09:40:26;9.77;;;4.47;;
53714;SDS011;39608;55.630;37.864;2023-12-04T09:45:30;12.75;;;6.13;;
53714;SDS011;39608;55.630;37.864;2023-12-04T09:50:33;8.90;;;4.90;;
53714;SDS011;39608;55.630;37.864;2023-12-04T09:55:36;10.23;;;4.55;;
53714;SDS011;39608;55.630;37.864;2023-12-04T10:00:39;9.88;;;5.97;;
53714;SDS011;39608;55.630;37.864;2023-12-04T10:05:44;12.25;;;5.60;;
53714;SDS011;39608;55.630;37.864;2023-12-04T10:10:46;9.77;;;5.80;;
53714;SDS011;39608;55.630;37.864;2023-12-04T10:15:50;11.93;;;6.20;;
53714;SDS011;39608;55.630;37.864;2023-12-04T10:21:00;13.00;;;5.18;;
53714;SDS011;39608;55.630;37.864;2023-12-04T10:26:06;3.03;;;2.55;;
53714;SDS011;39608;55.630;37.864;2023-12-04T10:31:10;6.50;;;3.28;;
53714;SDS011;39608;55.630;37.864;2023-12-04T10:36:13;10.10;;;5.03;;
53714;SDS011;39608;55.630;37.864;2023-12-04T10:41:18;10.90;;;4.68;;
53714;SDS011;39608;55.630;37.864;2023-12-04T10:46:21;9.45;;;4.53;;
53714;SDS011;39608;55.630;37.864;2023-12-04T10:51:25;10.98;;;5.72;;
53714;SDS011;39608;55.630;37.864;2023-12-04T10:56:31;4.03;;;2.88;;
53714;SDS011;39608;55.630;37.864;2023-12-04T11:01:40;6.03;;;3.60;;
53714;SDS011;39608;55.630;37.864;2023-12-04T11:11:51;17.15;;;7.03;;
53714;SDS011;39608;55.630;37.864;2023-12-04T11:17:01;13.25;;;6.15;;
53714;SDS011;39608;55.630;37.864;2023-12-04T11:22:11;11.60;;;5.63;;
53714;SDS011;39608;55.630;37.864;2023-12-04T11:27:20;15.43;;;6.63;;
53714;SDS011;39608;55.630;37.864;2023-12-04T11:32:27;11.95;;;5.88;;
53714;SDS011;39608;55.630;37.864;2023-12-04T11:37:36;17.15;;;7.15;;
53714;SDS011;39608;55.630;37.864;2023-12-04T11:42:41;19.20;;;7.65;;
53714;SDS011;39608;55.630;37.864;2023-12-04T11:47:57;8.70;;;4.13;;
53714;SDS011;39608;55.630;37.864;2023-12-04T11:52:59;23.25;;;7.80;;
53714;SDS011;39608;55.630;37.864;2023-12-04T11:58:08;20.38;;;8.32;;
53714;SDS011;39608;55.630;37.864;2023-12-04T12:03:16;15.90;;;6.43;;
53714;SDS011;39608;55.630;37.864;2023-12-04T12:08:19;9.32;;;5.10;;
53714;SDS011;39608;55.630;37.864;2023-12-04T12:13:23;7.38;;;4.30;;
53714;SDS011;39608;55.630;37.864;2023-12-04T12:18:37;15.35;;;7.07;;
53714;SDS011;39608;55.630;37.864;2023-12-04T12:23:44;11.25;;;5.47;;
53714;SDS011;39608;55.630;37.864;2023-12-04T12:28:48;14.85;;;5.90;;
53714;SDS011;39608;55.630;37.864;2023-12-04T12:33:58;14.60;;;6.35;;
53714;SDS011;39608;55.630;37.864;2023-12-04T12:39:03;17.05;;;8.70;;
53714;SDS011;39608;55.630;37.864;2023-12-04T12:44:13;9.02;;;5.05;;
53714;SDS011;39608;55.630;37.864;2023-12-04T13:09:11;15.15;;;6.97;;
53714;SDS011;39608;55.630;37.864;2023-12-04T13:14:30;16.33;;;8.25;;
53714;SDS011;39608;55.630;37.864;2023-12-04T13:19:59;19.45;;;8.18;;
53714;SDS011;39608;55.630;37.864;2023-12-04T13:43:10;22.40;;;9.30;;
53714;SDS011;39608;55.630;37.864;2023-12-04T14:00:44;17.10;;;6.67;;
53714;SDS011;39608;55.630;37.864;2023-12-04T14:11:09;10.30;;;4.90;;
53714;SDS011;39608;55.630;37.864;2023-12-04T14:27:14;20.08;;;8.23;;
53714;SDS011;39608;55.630;37.864;2023-12-04T14:32:16;16.30;;;6.97;;
53714;SDS011;39608;55.630;37.864;2023-12-04T15:04:46;18.77;;;8.45;;
53714;SDS011;39608;55.630;37.864;2023-12-04T15:10:14;12.25;;;5.68;;
53714;SDS011;39608;55.630;37.864;2023-12-04T15:21:20;15.13;;;6.07;;
53714;SDS011;39608;55.630;37.864;2023-12-04T15:37:29;8.85;;;4.85;;
53714;SDS011;39608;55.630;37.864;2023-12-04T15:53:56;14.13;;;7.03;;
53714;SDS011;39608;55.630;37.864;2023-12-04T15:58:58;16.42;;;6.80;;
53714;SDS011;39608;55.630;37.864;2023-12-04T16:15:10;13.98;;;6.40;;
53714;SDS011;39608;55.630;37.864;2023-12-04T16:20:19;9.23;;;4.88;;
53714;SDS011;39608;55.630;37.864;2023-12-04T16:25:22;4.15;;;2.50;;
53714;SDS011;39608;55.630;37.864;2023-12-04T16:30:27;18.60;;;7.45;;
53714;SDS011;39608;55.630;37.864;2023-12-04T16:35:29;18.48;;;7.63;;
53714;SDS011;39608;55.630;37.864;2023-12-04T16:40:32;12.60;;;5.75;;
53714;SDS011;39608;55.630;37.864;2023-12-04T16:45:35;16.92;;;6.70;;
53714;SDS011;39608;55.630;37.864;2023-12-04T16:50:37;20.08;;;7.72;;
53714;SDS011;39608;55.630;37.864;2023-12-04T16:55:39;15.77;;;7.18;;
53714;SDS011;39608;55.630;37.864;2023-12-04T17:00:43;11.18;;;5.00;;
53714;SDS011;39608;55.630;37.864;2023-12-04T17:05:45;15.82;;;6.60;;
53714;SDS011;39608;55.630;37.864;2023-12-04T17:10:47;24.73;;;8.75;;
53714;SDS011;39608;55.630;37.864;2023-12-04T17:15:50;19.38;;;7.82;;
53714;SDS011;39608;55.630;37.864;2023-12-04T17:20:53;19.83;;;7.15;;
53714;SDS011;39608;55.630;37.864;2023-12-04T17:25:55;17.88;;;8.38;;
53714;SDS011;39608;55.630;37.864;2023-12-04T17:31:00;20.90;;;8.32;;
53714;SDS011;39608;55.630;37.864;2023-12-04T17:36:06;9.63;;;5.43;;
53714;SDS011;39608;55.630;37.864;2023-12-04T17:41:11;23.98;;;9.50;;
53714;SDS011;39608;55.630;37.864;2023-12-04T17:46:18;16.50;;;7.30;;
53714;SDS011;39608;55.630;37.864;2023-12-04T17:51:23;16.80;;;8.05;;
53714;SDS011;39608;55.630;37.864;2023-12-04T17:56:26;20.98;;;9.40;;
53714;SDS011;39608;55.630;37.864;2023-12-04T18:01:31;18.83;;;7.57;;
53714;SDS011;39608;55.630;37.864;2023-12-04T18:06:33;22.55;;;8.25;;
53714;SDS011;39608;55.630;37.864;2023-12-04T18:11:37;14.57;;;6.95;;
53714;SDS011;39608;55.630;37.864;2023-12-04T18:16:44;17.65;;;6.65;;
53714;SDS011;39608;55.630;37.864;2023-12-04T18:21:46;14.20;;;6.03;;
53714;SDS011;39608;55.630;37.864;2023-12-04T18:26:48;10.18;;;5.47;;
53714;SDS011;39608;55.630;37.864;2023-12-04T18:31:53;13.30;;;6.53;;
53714;SDS011;39608;55.630;37.864;2023-12-04T18:36:56;16.30;;;5.88;;
53714;SDS011;39608;55.630;37.864;2023-12-04T18:42:02;13.75;;;6.20;;
53714;SDS011;39608;55.630;37.864;2023-12-04T18:47:07;23.00;;;8.60;;
53714;SDS011;39608;55.630;37.864;2023-12-04T18:52:14;10.57;;;6.13;;
53714;SDS011;39608;55.630;37.864;2023-12-04T18:57:18;10.68;;;5.90;;
53714;SDS011;39608;55.630;37.864;2023-12-04T19:02:22;17.73;;;7.80;;
53714;SDS011;39608;55.630;37.864;2023-12-04T19:07:24;19.98;;;9.20;;
53714;SDS011;39608;55.630;37.864;2023-12-04T19:12:29;16.20;;;7.63;;
53714;SDS011;39608;55.630;37.864;2023-12-04T19:17:33;17.05;;;7.00;;
53714;SDS011;39608;55.630;37.864;2023-12-04T19:22:36;8.10;;;4.35;;
53714;SDS011;39608;55.630;37.864;2023-12-04T19:27:40;17.67;;;7.38;;
